Time;durP1;ratioP1;P1;durP2;ratioP2;P2;SDS_P1;SDS_P2;PMS_P1;PMS_P2;Temp;Humidity;BMP_temperature;BMP_pressure;BME280_temperature;BME280_humidity;BME280_pressure;Samples;Min_cycle;Max_cycle;Signal;HPM_P1;HPM_P2
2021/03/09 00:00:27;;;;;;;8.93;5.07;;;;;;;-144.99;50.29;52313.56;4986404;28;20626;-74
2021/03/09 00:02:53;;;;;;;7.03;3.20;;;;;;;-144.99;50.39;52321.72;4987913;28;20759;-75
2021/03/09 00:05:20;;;;;;;8.23;4.20;;;;;;;-144.99;50.45;52374.72;4987202;28;21460;-73
2021/03/09 00:07:46;;;;;;;9.67;4.90;;;;;;;-144.99;50.42;52362.50;4986438;28;20677;-77
2021/03/09 00:10:13;;;;;;;14.27;6.73;;;;;;;-144.99;50.34;52348.22;4986865;28;20705;-77
2021/03/09 00:12:39;;;;;;;11.50;5.17;;;;;;;-144.99;50.23;52370.63;4987148;28;20630;-77
2021/03/09 00:15:06;;;;;;;9.07;4.90;;;;;;;-144.99;50.33;52333.94;4988190;28;20647;-74
2021/03/09 00:17:32;;;;;;;10.60;5.07;;;;;;;-144.99;50.36;52338.03;4985845;28;20637;-75
2021/03/09 00:19:58;;;;;;;13.27;5.77;;;;;;;-144.99;50.65;52346.19;4985277;28;20634;-74
2021/03/09 00:22:25;;;;;;;9.17;4.50;;;;;;;-144.99;50.38;52305.41;4986609;28;20685;-77
2021/03/09 00:24:51;;;;;;;17.50;6.80;;;;;;;-144.99;50.36;52305.41;4979861;28;20636;-78
2021/03/09 00:27:17;;;;;;;7.33;3.93;;;;;;;-144.99;50.28;52333.94;4986827;28;20651;-75
2021/03/09 00:29:44;;;;;;;18.80;6.57;;;;;;;-144.99;50.35;52333.94;4986087;28;20646;-75
2021/03/09 00:32:10;;;;;;;8.87;3.57;;;;;;;-144.99;50.04;52313.56;4987397;28;21381;-75
2021/03/09 00:34:36;;;;;;;9.47;4.20;;;;;;;-144.99;50.00;52333.94;4641361;28;10000275;-76
2021/03/09 00:37:03;;;;;;;8.83;4.27;;;;;;;-144.99;50.13;52340.06;4985008;28;20235;-75
2021/03/09 00:39:30;;;;;;;7.50;3.30;;;;;;;-144.99;49.94;52354.34;4986276;28;20634;-75
2021/03/09 00:41:56;;;;;;;7.20;3.23;;;;;;;-144.99;49.96;52313.56;4983151;28;20935;-76
2021/03/09 00:44:22;;;;;;;7.97;3.37;;;;;;;-144.99;50.12;52309.50;4986663;28;20626;-74
2021/03/09 00:46:49;;;;;;;7.03;3.20;;;;;;;-144.99;50.09;52317.66;4995987;28;20784;-75
2021/03/09 00:49:15;;;;;;;10.10;3.07;;;;;;;-144.99;50.31;52342.09;4988166;28;20631;-77
2021/03/09 00:51:41;;;;;;;8.57;4.20;;;;;;;-144.99;50.33;52358.41;4988965;28;20629;-77
2021/03/09 00:54:07;;;;;;;8.50;3.37;;;;;;;-144.99;50.13;52323.75;4989802;28;20627;-77
2021/03/09 00:56:33;;;;;;;5.03;2.73;;;;;;;-144.99;50.11;52323.75;4986745;28;21017;-75
2021/03/09 00:58:59;;;;;;;6.83;4.23;;;;;;;-144.99;50.07;52348.22;4989559;28;20614;-75
2021/03/09 01:01:25;;;;;;;4.20;2.67;;;;;;;-144.99;50.21;52313.56;4990385;28;20635;-74
2021/03/09 01:03:51;;;;;;;6.03;3.57;;;;;;;-144.99;50.20;52342.09;4989180;28;20631;-75
2021/03/09 01:06:17;;;;;;;4.57;2.67;;;;;;;-144.99;50.21;52342.09;4988652;28;20752;-75
2021/03/09 01:08:43;;;;;;;7.53;3.17;;;;;;;-144.99;50.33;52329.88;4989404;28;20844;-74
2021/03/09 01:11:09;;;;;;;6.03;2.87;;;;;;;-144.99;50.34;52303.38;4991501;28;20736;-74
2021/03/09 01:13:36;;;;;;;12.20;3.57;;;;;;;-144.99;50.22;52317.66;4993781;28;20840;-76
2021/03/09 01:16:02;;;;;;;4.70;3.37;;;;;;;-144.99;50.09;52338.03;4994008;28;20222;-76
2021/03/09 01:18:28;;;;;;;11.50;3.43;;;;;;;-144.99;49.95;52309.50;4993452;28;20618;-76
2021/03/09 01:20:55;;;;;;;8.53;3.37;;;;;;;-144.99;50.07;52348.22;4991200;28;20622;-76
2021/03/09 01:23:21;;;;;;;6.77;3.43;;;;;;;-144.99;49.95;52305.41;4991131;28;20629;-76
2021/03/09 01:25:46;;;;;;;8.83;2.87;;;;;;;-144.99;49.87;52356.38;4993177;28;20781;-76
2021/03/09 01:28:13;;;;;;;11.60;3.87;;;;;;;-144.99;49.96;52346.19;4993385;28;20657;-77
2021/03/09 01:30:40;;;;;;;8.17;4.40;;;;;;;-144.99;49.70;52360.44;4992103;28;20207;-74
2021/03/09 01:33:06;;;;;;;13.47;3.93;;;;;;;-144.99;49.74;52311.53;4995053;28;20630;-76
2021/03/09 01:35:32;;;;;;;8.23;4.13;;;;;;;-144.99;49.42;52329.88;4992365;28;20646;-74
2021/03/09 01:37:58;;;;;;;10.43;4.13;;;;;;;-144.99;49.47;52321.72;4993416;28;20618;-76
2021/03/09 01:40:25;;;;;;;8.03;3.27;;;;;;;-144.99;49.07;52299.31;4992919;28;21043;-75
2021/03/09 01:42:52;;;;;;;8.97;3.83;;;;;;;-144.99;49.15;52366.56;4993841;28;20200;-76
2021/03/09 01:45:19;;;;;;;8.47;3.00;;;;;;;-144.99;49.13;52350.25;4992949;28;20669;-74
2021/03/09 01:47:48;;;;;;;9.20;4.03;;;;;;;-144.99;49.13;52305.41;5020428;23;21749;-76
2021/03/09 01:50:16;;;;;;;7.93;3.33;;;;;;;-144.99;48.87;52313.56;5000758;28;21490;-77
2021/03/09 01:52:43;;;;;;;7.90;3.40;;;;;;;-144.99;48.79;52348.22;5011282;28;20621;-78
2021/03/09 01:55:11;;;;;;;8.43;4.20;;;;;;;-144.99;49.02;52342.09;5008188;28;20610;-79
2021/03/09 01:57:40;;;;;;;12.30;4.73;;;;;;;-144.99;48.92;52350.25;5003989;28;20614;-78
2021/03/09 02:00:07;;;;;;;8.93;3.40;;;;;;;-144.99;48.76;52329.88;4986956;28;20630;-76
2021/03/09 02:02:34;;;;;;;4.13;2.53;;;;;;;-144.99;48.81;52354.34;4994145;28;20618;-77
2021/03/09 02:05:02;;;;;;;9.10;3.43;;;;;;;-144.99;48.73;52350.25;4984319;28;20623;-77
2021/03/09 02:07:28;;;;;;;4.03;2.57;;;;;;;-144.99;48.90;52368.59;4984013;28;20659;-77
2021/03/09 02:09:54;;;;;;;5.27;2.40;;;;;;;-144.99;48.84;52360.44;4985859;28;21214;-77
2021/03/09 02:12:23;;;;;;;4.47;2.10;;;;;;;-144.99;48.95;52342.09;4991525;28;20630;-77
2021/03/09 02:15:00;;;;;;;5.00;3.00;;;;;;;-144.99;49.17;52342.09;4989795;28;20651;-77
2021/03/09 02:17:33;;;;;;;5.00;2.47;;;;;;;-144.99;48.98;52338.03;4980796;28;20618;-77
2021/03/09 02:20:29;;;;;;;5.20;3.17;;;;;;;-144.99;48.74;52289.13;4988745;28;20646;-77
2021/03/09 02:23:29;;;;;;;2.87;2.20;;;;;;;-144.99;48.44;52321.72;4983787;28;21168;-76
2021/03/09 02:26:21;;;;;;;6.57;2.17;;;;;;;-144.99;48.49;52354.34;4988921;28;20627;-74
2021/03/09 02:28:54;;;;;;;3.60;1.60;;;;;;;-144.99;48.81;52313.56;4993068;28;20674;-74
2021/03/09 02:31:24;;;;;;;4.53;1.97;;;;;;;-144.99;48.65;52311.53;4989388;28;20640;-74
2021/03/09 02:33:54;;;;;;;3.50;2.03;;;;;;;-144.99;48.70;52338.03;4985533;28;20988;-77
2021/03/09 02:36:23;;;;;;;5.10;2.40;;;;;;;-144.99;48.69;52354.34;4985612;28;20634;-76
2021/03/09 02:38:52;;;;;;;6.23;2.33;;;;;;;-144.99;48.86;52352.28;4987513;28;20646;-75
2021/03/09 02:41:22;;;;;;;3.33;2.07;;;;;;;-144.99;48.74;52297.25;4987523;28;20619;-77
2021/03/09 02:43:50;;;;;;;3.50;1.83;;;;;;;-144.99;48.79;52358.41;4990218;28;20766;-77
2021/03/09 02:46:18;;;;;;;3.70;2.53;;;;;;;-144.99;48.93;52336.00;4989344;28;21196;-77
2021/03/09 02:48:46;;;;;;;5.17;2.70;;;;;;;-144.99;48.77;52293.19;4985184;28;20704;-77
2021/03/09 02:51:12;;;;;;;5.50;2.77;;;;;;;-144.99;48.68;52329.88;4992141;28;20627;-76
2021/03/09 02:53:45;;;;;;;8.77;3.53;;;;;;;-144.99;48.91;52325.81;4983542;28;21191;-76
2021/03/09 02:56:12;;;;;;;7.77;3.80;;;;;;;-144.99;49.17;52317.66;4985202;28;20649;-77
2021/03/09 02:58:43;;;;;;;9.40;3.30;;;;;;;-144.99;49.40;52317.66;4984517;28;20911;-77
2021/03/09 03:01:10;;;;;;;4.10;1.97;;;;;;;-144.99;49.33;52329.88;4986707;28;20626;-78
2021/03/09 03:03:40;;;;;;;4.90;2.40;;;;;;;-144.99;49.32;52366.56;4992498;28;20661;-78
2021/03/09 03:06:09;;;;;;;6.73;2.50;;;;;;;-144.99;49.38;52313.56;4983270;28;20637;-77
2021/03/09 03:08:37;;;;;;;7.67;2.00;;;;;;;-144.99;49.42;52309.50;4991636;28;20674;-76
2021/03/09 03:11:04;;;;;;;4.40;2.33;;;;;;;-144.99;49.60;52342.09;4987961;28;21012;-75
2021/03/09 03:13:30;;;;;;;4.33;2.43;;;;;;;-144.99;49.71;52289.13;4990519;28;20631;-77
2021/03/09 03:15:58;;;;;;;4.27;2.40;;;;;;;-144.99;49.72;52325.81;4986335;28;20634;-75
2021/03/09 03:18:25;;;;;;;6.97;2.90;;;;;;;-144.99;49.61;52329.88;4987691;28;21040;-77
2021/03/09 03:20:52;;;;;;;5.43;3.60;;;;;;;-144.99;49.84;52354.34;4981260;28;20643;-74
2021/03/09 03:23:20;;;;;;;6.07;2.13;;;;;;;-144.99;49.31;52354.34;4986493;28;20624;-77
2021/03/09 03:25:49;;;;;;;5.13;1.90;;;;;;;-144.99;50.17;52333.94;4991029;28;20685;-77
2021/03/09 03:28:15;;;;;;;4.57;2.03;;;;;;;-144.99;50.74;52309.50;4991201;28;20680;-76
2021/03/09 03:30:41;;;;;;;4.20;1.63;;;;;;;-144.99;51.03;52313.56;4988444;28;20725;-75
2021/03/09 03:33:07;;;;;;;6.07;2.27;;;;;;;-144.99;50.78;52346.19;4991917;28;20614;-75
2021/03/09 03:35:33;;;;;;;6.67;2.77;;;;;;;-144.99;52.07;52325.81;4988131;28;21196;-75
2021/03/09 03:38:01;;;;;;;5.73;2.67;;;;;;;-144.99;53.46;52303.38;4983490;28;20647;-75
2021/03/09 03:40:29;;;;;;;2.83;2.53;;;;;;;-144.99;55.62;52350.25;4984304;28;20621;-76
2021/03/09 03:42:55;;;;;;;8.97;2.60;;;;;;;-144.99;56.52;52325.81;4991584;28;20733;-74
2021/03/09 03:45:21;;;;;;;5.50;1.93;;;;;;;-144.99;57.05;52338.03;4984611;28;20626;-75
2021/03/09 03:47:48;;;;;;;4.37;2.57;;;;;;;-144.99;57.13;52350.25;4983490;28;20670;-75
2021/03/09 03:50:16;;;;;;;7.50;3.47;;;;;;;-144.99;57.43;52346.19;4983589;28;20701;-77
2021/03/09 03:52:51;;;;;;;11.03;3.60;;;;;;;-144.99;57.58;52321.72;4990827;28;21196;-76
2021/03/09 03:55:29;;;;;;;3.73;2.50;;;;;;;-144.99;57.79;52313.56;4986597;28;20614;-76
2021/03/09 03:58:06;;;;;;;5.43;2.10;;;;;;;-144.99;57.75;52338.03;4986402;28;20644;-76
2021/03/09 04:00:33;;;;;;;6.63;2.27;;;;;;;-144.99;57.95;52323.75;4987942;28;20622;-76
2021/03/09 04:03:00;;;;;;;3.33;2.30;;;;;;;-144.99;59.31;52311.53;4990050;28;20694;-78
2021/03/09 04:05:29;;;;;;;4.60;2.20;;;;;;;-144.99;61.66;52315.59;4978486;28;20714;-78
2021/03/09 04:07:56;;;;;;;7.77;2.67;;;;;;;-144.99;62.29;52362.50;4979556;28;20667;-78
2021/03/09 04:10:24;;;;;;;5.47;3.23;;;;;;;-144.99;63.80;52323.75;4986234;28;20638;-76
2021/03/09 04:12:52;;;;;;;5.40;2.70;;;;;;;-144.99;64.30;52329.88;4985600;28;20756;-76
2021/03/09 04:15:21;;;;;;;8.33;2.70;;;;;;;-144.99;65.52;52354.34;4985286;28;20635;-77
2021/03/09 04:17:51;;;;;;;7.13;3.37;;;;;;;-144.99;67.01;52311.53;4983549;28;20674;-81
2021/03/09 04:20:18;;;;;;;4.77;2.57;;;;;;;-144.99;68.23;52362.50;4988171;28;20673;-79
2021/03/09 04:22:45;;;;;;;4.47;2.83;;;;;;;-144.99;70.01;52325.81;4991329;28;20625;-78
2021/03/09 04:25:12;;;;;;;6.30;3.27;;;;;;;-144.99;69.87;52313.56;4990664;28;20622;-78
2021/03/09 04:27:40;;;;;;;7.60;3.67;;;;;;;-144.99;70.48;52378.78;4982275;28;20689;-77
2021/03/09 04:30:07;;;;;;;8.07;3.63;;;;;;;-144.99;71.01;52346.19;4989563;28;20641;-77
2021/03/09 04:32:34;;;;;;;5.73;2.63;;;;;;;-144.99;73.33;52340.06;4991554;28;20733;-77
2021/03/09 04:35:00;;;;;;;6.77;3.47;;;;;;;-144.99;73.28;52319.69;4986258;28;20640;-79
2021/03/09 04:37:26;;;;;;;11.77;4.57;;;;;;;-144.99;75.02;52293.19;4985431;28;20636;-74
2021/03/09 04:39:53;;;;;;;6.60;4.03;;;;;;;-144.99;77.78;52354.34;4989900;28;20626;-79
2021/03/09 04:42:19;;;;;;;5.63;3.50;;;;;;;-144.99;77.42;52329.88;4992110;28;20621;-78
2021/03/09 04:44:45;;;;;;;13.17;10.40;;;;;;;-144.99;78.66;52321.72;4987355;28;20623;-78
2021/03/09 04:47:11;;;;;;;12.63;5.30;;;;;;;-144.99;81.05;52309.50;4995710;28;20622;-76
2021/03/09 04:49:39;;;;;;;12.47;5.60;;;;;;;-144.99;80.75;52313.56;4993549;28;20658;-77
2021/03/09 04:52:05;;;;;;;6.10;4.17;;;;;;;-144.99;83.98;52319.69;4993571;28;20680;-75
2021/03/09 04:54:34;;;;;;;10.57;6.37;;;;;;;-144.99;84.37;52325.81;4992298;28;20726;-75
2021/03/09 04:57:00;;;;;;;14.13;6.97;;;;;;;-144.99;84.79;52325.81;4990166;28;21272;-76
2021/03/09 04:59:26;;;;;;;14.70;7.07;;;;;;;-144.99;88.42;52317.66;4991884;28;20819;-76
2021/03/09 05:01:52;;;;;;;17.70;8.37;;;;;;;-144.99;88.67;52333.94;4990781;28;21020;-74
2021/03/09 05:04:18;;;;;;;12.07;5.97;;;;;;;-144.99;88.41;52325.81;4988025;28;20632;-75
2021/03/09 05:06:46;;;;;;;9.23;6.37;;;;;;;-144.99;88.86;52317.66;4983353;28;20633;-77
2021/03/09 05:09:12;;;;;;;10.10;6.13;;;;;;;-144.99;89.16;52309.50;4986498;28;20674;-75
2021/03/09 05:11:38;;;;;;;13.10;5.63;;;;;;;-144.99;90.04;52297.25;4985462;28;20822;-74
2021/03/09 05:14:04;;;;;;;10.77;5.20;;;;;;;-144.99;91.44;52329.88;4992095;28;20626;-75
2021/03/09 05:16:30;;;;;;;8.03;4.13;;;;;;;-144.99;92.07;52303.38;4988552;28;20628;-78
2021/03/09 05:18:56;;;;;;;6.93;3.63;;;;;;;-144.99;95.16;52329.88;4994120;28;21085;-74
2021/03/09 05:21:22;;;;;;;16.63;8.47;;;;;;;-144.99;95.16;52299.31;4995022;28;20737;-74
2021/03/09 05:23:49;;;;;;;10.37;4.80;;;;;;;-144.99;95.28;52321.72;4994542;28;20727;-74
2021/03/09 05:26:15;;;;;;;11.40;5.13;;;;;;;-144.99;95.39;52327.84;4987494;28;20646;-75
2021/03/09 05:28:41;;;;;;;10.43;7.07;;;;;;;-144.99;96.15;52305.41;4993512;28;20774;-74
2021/03/09 05:31:07;;;;;;;8.13;5.80;;;;;;;-144.99;96.63;52356.38;4994735;28;20642;-76
2021/03/09 05:33:33;;;;;;;9.43;5.83;;;;;;;-144.99;96.85;52342.09;4990549;28;20629;-74
2021/03/09 05:35:59;;;;;;;11.60;5.87;;;;;;;-144.99;97.08;52333.94;4989058;28;20626;-74
2021/03/09 05:38:26;;;;;;;18.43;11.30;;;;;;;-144.99;97.06;52297.25;4993296;28;20645;-75
2021/03/09 05:40:53;;;;;;;17.50;6.90;;;;;;;-144.99;96.94;52321.72;4987499;28;20610;-75
2021/03/09 05:43:19;;;;;;;12.83;6.47;;;;;;;-144.99;96.86;52303.38;4994396;28;20622;-74
2021/03/09 05:45:45;;;;;;;14.13;5.77;;;;;;;-144.99;96.70;52321.72;4992028;28;20624;-76
2021/03/09 05:48:13;;;;;;;12.17;7.40;;;;;;;-144.99;96.98;52350.25;4986783;28;20666;-76
2021/03/09 05:50:40;;;;;;;13.47;5.10;;;;;;;-144.99;97.13;52329.88;4994413;28;21069;-74
2021/03/09 05:53:06;;;;;;;10.43;5.77;;;;;;;-144.99;98.08;52325.81;4989320;28;20634;-74
2021/03/09 05:55:32;;;;;;;7.03;4.60;;;;;;;-144.99;97.85;52307.47;4987839;28;20638;-75
2021/03/09 05:57:59;;;;;;;6.47;5.00;;;;;;;-144.99;99.29;52350.25;4990740;28;20645;-74
2021/03/09 06:00:25;;;;;;;7.57;4.33;;;;;;;-144.99;99.63;52350.25;4993772;28;20626;-73
2021/03/09 06:02:52;;;;;;;10.53;4.00;;;;;;;-144.99;98.84;52313.56;4987973;28;21203;-73
2021/03/09 06:05:19;;;;;;;11.40;4.80;;;;;;;-144.99;98.32;52285.03;4986863;28;20635;-72
2021/03/09 06:07:45;;;;;;;8.93;5.60;;;;;;;-144.99;98.30;52338.03;4985057;28;21534;-73
2021/03/09 06:10:19;;;;;;;6.53;3.60;;;;;;;-144.99;98.30;52297.25;4984330;28;20642;-75
2021/03/09 06:12:45;;;;;;;9.43;5.57;;;;;;;-144.99;98.50;52325.81;4989479;28;21168;-73
2021/03/09 06:15:12;;;;;;;11.40;5.23;;;;;;;-144.99;98.76;52317.66;4299924;28;10000720;-72
2021/03/09 06:17:40;;;;;;;8.83;5.03;;;;;;;-144.99;98.87;52313.56;4991459;28;20487;-73
2021/03/09 06:20:08;;;;;;;14.17;8.17;;;;;;;-144.99;99.31;52329.88;4992769;28;20734;-73
2021/03/09 06:22:41;;;;;;;9.20;5.80;;;;;;;-144.99;99.20;52319.69;4984202;28;20722;-74
2021/03/09 06:25:09;;;;;;;11.47;4.73;;;;;;;-144.99;98.87;52362.50;4988709;28;21002;-73
2021/03/09 06:27:36;;;;;;;11.10;6.18;;;;;;;-144.99;98.74;52329.88;4982017;28;20869;-73
2021/03/09 06:30:04;;;;;;;8.30;4.67;;;;;;;-144.99;98.84;52372.69;4987090;28;20692;-73
2021/03/09 06:32:44;;;;;;;6.47;3.77;;;;;;;-144.99;99.07;52317.66;4992904;28;20729;-74
2021/03/09 06:35:33;;;;;;;9.27;4.30;;;;;;;-144.99;99.13;52362.50;4991412;28;21123;-74
2021/03/09 06:38:23;;;;;;;7.27;4.03;;;;;;;-144.99;99.04;52346.19;4983774;28;20651;-75
2021/03/09 06:41:09;;;;;;;6.10;3.83;;;;;;;-144.99;99.10;52338.03;4982139;28;20976;-74
2021/03/09 06:43:36;;;;;;;6.17;4.07;;;;;;;-144.99;99.24;52348.22;4985657;28;20669;-74
2021/03/09 06:46:13;;;;;;;10.33;4.60;;;;;;;-144.99;99.20;52327.84;4983019;28;20631;-74
2021/03/09 06:48:41;;;;;;;7.77;4.97;;;;;;;-144.99;99.15;52346.19;4984457;28;21083;-73
2021/03/09 06:51:26;;;;;;;9.57;4.57;;;;;;;-144.99;99.38;52319.69;4980952;28;20627;-74
2021/03/09 06:54:03;;;;;;;7.80;4.77;;;;;;;-144.99;99.33;52287.06;4974702;28;20623;-73
2021/03/09 06:56:29;;;;;;;10.70;4.37;;;;;;;-144.99;99.53;52340.06;4983767;28;20622;-73
2021/03/09 06:58:56;;;;;;;7.37;3.50;;;;;;;-144.99;99.42;52321.72;4983973;28;20754;-73
2021/03/09 07:01:23;;;;;;;7.53;4.20;;;;;;;-144.99;99.58;52285.03;4988745;28;21235;-73
2021/03/09 07:03:51;;;;;;;10.40;4.47;;;;;;;-144.99;99.78;52342.09;4981095;28;20631;-72
2021/03/09 07:06:17;;;;;;;6.30;4.53;;;;;;;-144.99;99.52;52317.66;4979239;28;20643;-72
2021/03/09 07:08:43;;;;;;;10.17;4.97;;;;;;;-144.99;99.55;52317.66;4985592;28;20663;-74
2021/03/09 07:11:09;;;;;;;9.60;4.67;;;;;;;-144.99;99.57;52344.16;4983502;28;20623;-73
2021/03/09 07:13:39;;;;;;;10.30;6.27;;;;;;;-144.99;99.74;52317.66;4987630;28;20629;-74
2021/03/09 07:16:05;;;;;;;7.20;4.67;;;;;;;-144.99;99.48;52305.41;4985741;28;20737;-74
2021/03/09 07:18:34;;;;;;;9.50;4.40;;;;;;;-144.99;99.44;52350.25;4987599;28;20661;-73
2021/03/09 07:21:02;;;;;;;8.93;5.47;;;;;;;-144.99;99.29;52293.19;4986368;28;20638;-75
2021/03/09 07:23:31;;;;;;;11.73;4.60;;;;;;;-144.99;99.17;52317.66;4987438;28;21192;-75
2021/03/09 07:26:01;;;;;;;7.10;4.07;;;;;;;-144.99;99.26;52309.50;4986968;28;20642;-72
2021/03/09 07:28:30;;;;;;;6.27;4.67;;;;;;;-144.99;99.39;52305.41;4981840;28;20675;-73
2021/03/09 07:30:58;;;;;;;9.47;4.33;;;;;;;-144.99;99.33;52299.31;4986356;28;20725;-75
2021/03/09 07:33:28;;;;;;;8.17;4.80;;;;;;;-144.99;99.34;52329.88;4998808;28;20646;-73
2021/03/09 07:35:56;;;;;;;9.03;3.60;;;;;;;-144.99;99.30;52333.94;4989024;28;20608;-73
2021/03/09 07:38:24;;;;;;;10.60;5.67;;;;;;;-144.99;99.24;52305.41;4986775;28;20704;-73
2021/03/09 07:40:51;;;;;;;9.43;5.03;;;;;;;-144.99;99.41;52319.69;4987432;28;20619;-72
2021/03/09 07:43:17;;;;;;;16.80;7.50;;;;;;;-144.99;99.75;52354.34;4987956;28;21263;-74
2021/03/09 07:45:44;;;;;;;10.73;6.30;;;;;;;-144.99;99.55;52346.19;4987583;28;21075;-72
2021/03/09 07:48:17;;;;;;;9.90;6.03;;;;;;;-144.99;99.10;52309.50;4987311;28;20686;-75
2021/03/09 07:50:46;;;;;;;11.57;4.50;;;;;;;-144.99;99.25;52321.72;4985481;28;21244;-73
2021/03/09 07:53:13;;;;;;;14.97;6.20;;;;;;;-144.99;99.25;52311.53;5023133;23;20684;-81
2021/03/09 07:55:42;;;;;;;16.57;7.13;;;;;;;-144.99;99.03;52362.50;5018212;28;20784;-80
2021/03/09 07:58:20;;;;;;;16.70;10.50;;;;;;;-144.99;98.87;52276.88;5007716;28;21556;-76
2021/03/09 08:00:56;;;;;;;8.70;5.20;;;;;;;-144.99;99.03;52280.97;5016695;28;20624;-78
2021/03/09 08:03:25;;;;;;;11.40;5.93;;;;;;;-144.99;98.81;52309.50;5015772;28;20733;-79
2021/03/09 08:06:06;;;;;;;9.23;5.03;;;;;;;-144.99;98.87;52319.69;5012275;28;20635;-80
2021/03/09 08:08:44;;;;;;;9.60;6.47;;;;;;;-144.99;98.55;52342.09;5021092;28;20645;-82
2021/03/09 08:11:41;;;;;;;10.07;6.03;;;;;;;-144.99;98.40;52327.84;5014745;28;20676;-78
2021/03/09 08:14:23;;;;;;;11.23;5.97;;;;;;;-144.99;97.79;52370.63;4941204;29;20659;-81
2021/03/09 08:16:50;;;;;;;11.23;5.97;;;;;;;-144.99;97.69;52364.53;4991747;28;20637;-81
2021/03/09 08:19:47;;;;;;;12.20;5.63;;;;;;;-144.99;97.51;52325.81;4994551;28;20627;-80
2021/03/09 08:22:13;;;;;;;12.03;6.47;;;;;;;-144.99;97.60;52289.13;4941615;29;20635;-80
2021/03/09 08:24:53;;;;;;;11.27;5.30;;;;;;;-144.99;97.28;52338.03;4988106;28;20671;-81
2021/03/09 08:27:41;;;;;;;11.30;4.77;;;;;;;-144.99;97.22;52321.72;4999689;28;20682;-82
2021/03/09 08:30:35;;;;;;;11.73;6.93;;;;;;;-144.99;97.01;52317.66;4986463;28;20608;-81
2021/03/09 08:33:35;;;;;;;9.13;5.60;;;;;;;-144.99;96.85;52329.88;5000867;28;20677;-82
2021/03/09 08:36:46;;;;;;;13.87;5.47;;;;;;;-144.99;97.06;52321.72;4565079;29;10000622;-79
2021/03/09 08:39:15;;;;;;;9.17;5.70;;;;;;;-144.99;97.67;52315.59;4983579;28;20698;-80
2021/03/09 08:41:58;;;;;;;13.10;8.17;;;;;;;-144.99;97.64;52285.03;5000490;28;20654;-79
2021/03/09 08:44:28;;;;;;;10.77;6.00;;;;;;;-144.99;97.57;52301.34;5015336;28;20665;-81
2021/03/09 08:47:03;;;;;;;11.77;6.23;;;;;;;-144.99;97.10;52285.03;5002079;28;20626;-84
2021/03/09 08:49:52;;;;;;;14.27;7.57;;;;;;;-144.99;96.85;52321.72;5004688;28;20914;-81
2021/03/09 08:52:41;;;;;;;8.70;6.53;;;;;;;-144.99;97.01;52305.41;4993800;28;21259;-81
2021/03/09 08:55:08;;;;;;;9.50;6.83;;;;;;;-144.99;96.94;52297.25;5007710;28;20738;-78
2021/03/09 08:57:34;;;;;;;13.57;7.50;;;;;;;-144.99;96.71;52321.72;4986012;28;20647;-79
2021/03/09 09:00:06;;;;;;;7.43;4.37;;;;;;;-144.99;96.37;52289.13;4986389;28;20710;-79
2021/03/09 09:02:32;;;;;;;12.73;6.03;;;;;;;-144.99;96.11;52352.28;4996865;28;20654;-79
2021/03/09 09:05:01;;;;;;;17.67;9.60;;;;;;;-144.99;95.98;52333.94;4994402;28;20658;-78
2021/03/09 09:07:29;;;;;;;6.30;4.77;;;;;;;-144.99;95.39;52311.53;5011926;28;20764;-80
2021/03/09 09:09:58;;;;;;;12.80;8.27;;;;;;;-144.99;95.88;52315.59;5007792;28;20753;-81
2021/03/09 09:12:32;;;;;;;10.93;6.87;;;;;;;-144.99;95.74;52280.97;5013033;28;20690;-82
2021/03/09 09:15:22;;;;;;;18.87;9.60;;;;;;;-144.99;95.96;52285.03;4999327;28;20656;-81
2021/03/09 09:17:55;;;;;;;16.17;9.00;;;;;;;-144.99;95.88;52323.75;5002172;28;20635;-80
2021/03/09 09:20:31;;;;;;;14.77;7.03;;;;;;;-144.99;95.63;52301.34;5001497;28;20622;-82
2021/03/09 09:23:06;;;;;;;10.70;6.27;;;;;;;-144.99;95.49;52280.97;5004135;28;20672;-81
2021/03/09 09:25:43;;;;;;;12.07;8.03;;;;;;;-144.99;95.56;52305.41;5020323;28;20685;-81
2021/03/09 09:28:20;;;;;;;13.83;6.33;;;;;;;-144.99;95.93;52321.72;5007751;28;20721;-81
2021/03/09 09:30:48;;;;;;;22.30;8.17;;;;;;;-144.99;95.77;52313.56;4998209;28;20698;-82
2021/03/09 09:33:15;;;;;;;13.57;5.53;;;;;;;-144.99;95.64;52266.69;5012586;28;20642;-79
2021/03/09 09:35:43;;;;;;;14.67;9.50;;;;;;;-144.99;95.77;52278.91;4995227;28;20630;-81
2021/03/09 09:38:11;;;;;;;14.67;6.13;;;;;;;-144.99;95.63;52280.97;4998272;28;20641;-79
2021/03/09 09:40:40;;;;;;;14.93;5.97;;;;;;;-144.99;95.59;52301.34;5012336;28;20618;-81
2021/03/09 09:43:09;;;;;;;10.70;6.47;;;;;;;-144.99;95.35;52325.81;5013004;28;20745;-81
2021/03/09 09:45:41;;;;;;;8.77;4.53;;;;;;;-144.99;95.09;52272.81;5013514;28;20618;-82
2021/03/09 09:48:12;;;;;;;8.87;6.13;;;;;;;-144.99;95.33;52283.00;5004428;28;20658;-79
2021/03/09 09:50:42;;;;;;;15.47;8.27;;;;;;;-144.99;95.08;52299.31;5011373;28;20631;-80
2021/03/09 09:53:09;;;;;;;15.37;6.37;;;;;;;-144.99;95.65;52309.50;5020465;28;20730;-80
2021/03/09 09:55:35;;;;;;;16.77;9.37;;;;;;;-144.99;95.79;52309.50;5005021;28;20622;-80
2021/03/09 09:58:06;;;;;;;10.20;6.97;;;;;;;-144.99;96.07;52301.34;5005818;28;20622;-79
2021/03/09 10:00:34;;;;;;;15.40;6.33;;;;;;;-144.99;95.75;52311.53;5002430;28;20630;-79
2021/03/09 10:03:13;;;;;;;10.67;6.27;;;;;;;-144.99;95.98;52289.13;4993977;28;21564;-82
2021/03/09 10:05:44;;;;;;;9.23;6.30;;;;;;;-144.99;96.14;52309.50;4999429;28;20618;-81
2021/03/09 10:08:12;;;;;;;11.17;7.70;;;;;;;-144.99;95.56;52358.41;5016631;28;20682;-79
2021/03/09 10:10:41;;;;;;;10.60;7.30;;;;;;;-144.99;95.62;52333.94;4998727;28;20630;-81
2021/03/09 10:13:24;;;;;;;10.03;7.17;;;;;;;-144.99;95.37;52303.38;4995898;28;21290;-79
2021/03/09 10:15:50;;;;;;;11.87;6.73;;;;;;;-144.99;95.17;52299.31;5001450;28;20684;-81
2021/03/09 10:18:25;;;;;;;17.70;9.10;;;;;;;-144.99;95.04;52301.34;5007899;28;20621;-80
2021/03/09 10:21:11;;;;;;;15.37;10.50;;;;;;;-144.99;95.27;52280.97;4996692;28;20634;-80
2021/03/09 10:23:55;;;;;;;16.33;8.90;;;;;;;-144.99;94.76;52333.94;5006607;28;20664;-81
2021/03/09 10:26:30;;;;;;;13.67;9.17;;;;;;;-144.99;94.59;52305.41;5000671;28;20611;-78
2021/03/09 10:29:04;;;;;;;11.07;7.50;;;;;;;-144.99;94.16;52276.88;5002493;28;20649;-80
2021/03/09 10:31:57;;;;;;;13.57;9.47;;;;;;;-144.99;93.84;52240.19;5001169;28;20649;-80
2021/03/09 10:34:37;;;;;;;10.37;8.53;;;;;;;-144.99;93.92;52317.66;5006274;28;20729;-81
2021/03/09 10:37:05;;;;;;;13.13;8.60;;;;;;;-144.99;94.46;52291.16;5000896;28;21219;-78
2021/03/09 10:39:33;;;;;;;14.53;9.30;;;;;;;-144.99;94.17;52295.22;5002873;28;20730;-82
2021/03/09 10:42:29;;;;;;;14.40;8.07;;;;;;;-144.99;93.57;52297.25;5004528;28;20658;-82
2021/03/09 10:44:57;;;;;;;10.37;8.40;;;;;;;-144.99;93.29;52317.66;5001777;28;20673;-79
2021/03/09 10:47:24;;;;;;;13.47;8.53;;;;;;;-144.99;93.05;52297.25;5014446;28;20622;-80
2021/03/09 10:49:51;;;;;;;15.10;9.27;;;;;;;-144.99;92.72;52297.25;4999797;28;20690;-83
2021/03/09 10:52:18;;;;;;;12.83;8.20;;;;;;;-144.99;93.33;52311.53;4987641;28;21238;-82
2021/03/09 10:54:44;;;;;;;14.40;9.30;;;;;;;-144.99;92.37;52309.50;5012710;28;20688;-82
2021/03/09 10:57:13;;;;;;;12.47;8.93;;;;;;;-144.99;92.60;52260.56;5003380;28;20639;-80
2021/03/09 10:59:39;;;;;;;13.53;9.37;;;;;;;-144.99;93.15;52285.03;5004085;28;20700;-81
2021/03/09 11:02:11;;;;;;;16.07;9.43;;;;;;;-144.99;91.84;52305.41;5016537;28;20622;-83
2021/03/09 11:04:37;;;;;;;12.27;8.27;;;;;;;-144.99;90.93;52325.81;5003814;28;20643;-74
2021/03/09 11:07:05;;;;;;;12.83;8.00;;;;;;;-144.99;90.51;52268.72;5020486;28;20652;-82
2021/03/09 11:09:31;;;;;;;13.87;8.40;;;;;;;-144.99;91.00;52305.41;5008163;28;20685;-81
2021/03/09 11:11:58;;;;;;;12.33;8.37;;;;;;;-144.99;90.53;52329.88;5000830;28;20631;-81
2021/03/09 11:14:24;;;;;;;15.63;8.53;;;;;;;-144.99;89.15;52299.31;5001196;28;20650;-79
2021/03/09 11:16:51;;;;;;;11.90;8.27;;;;;;;-144.99;89.13;52297.25;4998604;28;20666;-80
2021/03/09 11:19:18;;;;;;;15.23;9.10;;;;;;;-144.99;88.99;52333.94;5011009;28;20645;-82
2021/03/09 11:21:46;;;;;;;13.70;8.57;;;;;;;-144.99;88.92;52301.34;5010993;28;20619;-79
2021/03/09 11:24:13;;;;;;;13.03;7.13;;;;;;;-144.99;88.65;52264.66;5011678;28;20638;-82
2021/03/09 11:26:40;;;;;;;13.70;9.10;;;;;;;-144.99;88.76;52317.66;5003282;28;20611;-75